Flight Track Log - Related Links

Times and Time Zones

All times are in EDT time to prevent confusion due to time zone crossing. See the RPA4937 flight status page for this flight to view local times or setup timezone preferences in your user account.

Time Position Orientation Groundspeed Altitude Reporting Facility
EDT Latitude Longitude Course Direction KTS MPH feet Rate Location/Type
Wed 06:00:54 AM 39.7667 -75.2167 49° Northeast 287 330 10,600  Level Philadelphia TRACON
Wed 06:01:48 AM 39.8000 -75.1500 57° Northeast 281 323 10,100 -316 Descending Philadelphia TRACON
Wed 06:02:48 AM 39.8333 -75.0500 67° East 274 315 10,000 -100 Descending Philadelphia TRACON
Wed 06:03:48 AM 39.8667 -74.9667 62° Northeast 270 311 9,900 -500 Descending Philadelphia TRACON
Wed 06:04:48 AM 39.9167 -74.9000 46° Northeast 271 312 9,000 -900 Descending Philadelphia TRACON
Wed 06:05:48 AM 39.9667 -74.8333 46° Northeast 271 312 8,100 -900 Descending Philadelphia TRACON
Wed 06:06:00 AM 39.8516 -74.9809 49° Northeast  Level FlightAware Approximate
Wed 06:06:48 AM 40.0167 -74.7667 46° Northeast 252 290 7,200  Level Philadelphia TRACON
Wed 06:08:27 AM 40.1000 -74.6500 47° Northeast 257 296 7,000 -73 Descending New York TRACON
Wed 06:09:33 AM 40.1500 -74.5667 52° Northeast 257 296 7,000  Level New York TRACON
Wed 06:10:33 AM 40.2000 -74.5000 46° Northeast 253 291 7,000  Level New York TRACON
Wed 06:11:39 AM 40.2667 -74.4333 37° Northeast 254 292 7,000  Level New York TRACON
Wed 06:12:33 AM 40.3167 -74.4667 333° Northwest 264 304 7,000  Level New York TRACON
Wed 06:13:33 AM 40.3667 -74.5167 323° Northwest 264 304 7,000 -286 Level New York TRACON
Wed 06:14:39 AM 40.4333 -74.5167 360° North 255 293 6,400 -778 Descending New York TRACON
Wed 06:15:21 AM 40.4500 -74.4500 72° East 240 276 5,600 -875 Descending New York TRACON
Wed 06:16:15 AM 40.4667 -74.3833 72° East 221 254 5,000 -650 Descending New York TRACON
Wed 06:17:21 AM 40.4833 -74.3167 72° East 169 194 4,300 -714 Descending New York TRACON
Wed 06:18:21 AM 40.5167 -74.2667 49° Northeast 171 197 3,500 -778 Descending New York TRACON
Wed 06:19:09 AM 40.5500 -74.2500 21° North 170 196 2,900 -889 Descending New York TRACON
Wed 06:20:09 AM 40.6000 -74.2333 14° North 170 196 1,900 -889 Descending New York TRACON
Wed 06:20:57 AM 40.6333 -74.2000 37° Northeast 144 166 1,300 -750 Descending New York TRACON

Login

Don't have an account? Register now (free) for customized features, flight alerts, and more!